createdAt,value
2022-11-08T00:03:00.376Z,42.53
2022-11-08T00:06:21.433Z,39.13
2022-11-08T00:09:42.145Z,41.13
2022-11-08T00:13:03.173Z,42.20
2022-11-08T00:16:08.744Z,44.87
2022-11-08T00:19:12.463Z,37.77
2022-11-08T00:22:16.764Z,37.53
2022-11-08T00:25:20.393Z,42.90
2022-11-08T00:28:24.023Z,43.57
2022-11-08T00:31:29.661Z,35.10
2022-11-08T00:34:34.463Z,36.57
2022-11-08T00:37:38.093Z,41.37
2022-11-08T00:40:41.697Z,38.37
2022-11-08T00:43:45.736Z,46.17
2022-11-08T00:46:50.927Z,42.47
2022-11-08T00:49:54.834Z,43.10
2022-11-08T00:52:58.479Z,37.00
2022-11-08T00:56:02.862Z,43.63
2022-11-08T00:59:06.787Z,49.90
2022-11-08T01:02:11.972Z,41.83
2022-11-08T01:05:15.905Z,42.00
2022-11-08T01:08:20.752Z,45.07
2022-11-08T01:11:26.287Z,42.20
2022-11-08T01:14:30.016Z,47.87
2022-11-08T01:17:35.229Z,45.87
2022-11-08T01:20:40.306Z,48.53
2022-11-08T01:24:00.805Z,47.10
2022-11-08T01:27:13.624Z,47.83
2022-11-08T01:30:17.623Z,44.03
2022-11-08T01:33:22.891Z,47.43
2022-11-08T01:36:28.453Z,43.93
2022-11-08T01:39:33.192Z,47.30
2022-11-08T01:42:37.153Z,47.33
2022-11-08T01:46:26.323Z,48.27
2022-11-08T01:49:39.805Z,44.73
2022-11-08T01:52:47.625Z,44.23
2022-11-08T01:55:51.956Z,47.53
2022-11-08T01:58:59.454Z,42.67
2022-11-08T02:02:03.800Z,42.33
2022-11-08T02:05:25.207Z,46.90
2022-11-08T02:08:33.046Z,45.57
2022-11-08T02:11:37.520Z,42.07
2022-11-08T02:14:41.130Z,52.73
2022-11-08T02:17:44.665Z,42.53
2022-11-08T02:20:56.720Z,43.07
2022-11-08T02:24:03.069Z,47.07
2022-11-08T02:27:06.609Z,48.83
2022-11-08T02:30:11.509Z,47.07
2022-11-08T02:33:19.444Z,47.47
2022-11-08T02:36:26.054Z,47.77
2022-11-08T02:39:33.086Z,48.60
2022-11-08T02:42:39.962Z,51.90
2022-11-08T02:45:43.616Z,47.13
2022-11-08T02:48:47.359Z,54.30
2022-11-08T02:51:54.094Z,51.93
2022-11-08T02:54:59.254Z,49.10
2022-11-08T02:58:03.233Z,51.97
2022-11-08T03:01:07.165Z,54.63
2022-11-08T03:04:10.889Z,53.67
2022-11-08T03:07:14.532Z,52.63
2022-11-08T03:10:19.843Z,50.67
2022-11-08T03:13:23.290Z,55.93
2022-11-08T03:16:27.113Z,47.83
2022-11-08T03:19:30.721Z,49.23
2022-11-08T03:22:34.382Z,50.00
2022-11-08T03:25:39.642Z,47.53
2022-11-08T03:28:43.981Z,48.80
2022-11-08T03:31:47.682Z,52.33
2022-11-08T03:34:51.246Z,49.93
2022-11-08T03:37:56.513Z,51.17
2022-11-08T03:41:01.529Z,53.20
2022-11-08T03:44:05.205Z,56.20
2022-11-08T03:47:08.726Z,52.20
2022-11-08T03:50:13.741Z,50.03
2022-11-08T03:53:17.412Z,51.10
2022-11-08T03:56:22.462Z,54.23
2022-11-08T03:59:26.145Z,51.83
2022-11-08T04:02:29.677Z,53.03
2022-11-08T04:05:33.807Z,55.33
2022-11-08T04:08:37.310Z,57.03
2022-11-08T04:11:59.482Z,51.73
2022-11-08T04:15:19.854Z,57.07
2022-11-08T04:18:41.357Z,55.03
2022-11-08T04:21:45.945Z,56.53
2022-11-08T04:24:49.642Z,49.87
2022-11-08T04:27:54.703Z,50.87
2022-11-08T04:31:00.091Z,52.13
2022-11-08T04:34:04.292Z,48.47
2022-11-08T04:37:07.878Z,49.77
2022-11-08T04:40:13.052Z,48.50
2022-11-08T04:43:18.296Z,53.60
2022-11-08T04:46:23.933Z,49.17
2022-11-08T04:49:27.702Z,52.23
2022-11-08T04:52:31.485Z,53.80
2022-11-08T04:55:37.272Z,52.00
2022-11-08T04:58:44.052Z,52.70
2022-11-08T05:01:47.761Z,54.20
2022-11-08T05:04:51.473Z,55.77
2022-11-08T05:07:55.722Z,53.97
2022-11-08T05:11:03.725Z,51.17
2022-11-08T05:14:08.912Z,52.07
2022-11-08T05:17:12.639Z,51.07
2022-11-08T05:20:33.611Z,55.80
2022-11-08T05:23:37.332Z,53.93
2022-11-08T05:26:43.834Z,46.93
2022-11-08T05:29:49.022Z,50.27
2022-11-08T05:32:53.342Z,52.77
2022-11-08T05:35:57.076Z,55.97
2022-11-08T05:39:00.911Z,57.40
2022-11-08T05:42:05.875Z,47.07
2022-11-08T05:45:11.802Z,50.23
2022-11-08T05:48:15.769Z,49.53
2022-11-08T05:51:23.202Z,51.23
2022-11-08T05:54:26.932Z,49.90
2022-11-08T05:57:30.644Z,50.17
2022-11-08T06:00:35.863Z,46.83
2022-11-08T06:03:40.171Z,46.27
2022-11-08T06:06:43.842Z,42.17
2022-11-08T06:09:47.563Z,47.20
2022-11-08T06:12:51.562Z,43.83
2022-11-08T06:15:56.745Z,49.33
2022-11-08T06:19:00.483Z,42.03
2022-11-08T06:22:04.233Z,38.20
2022-11-08T06:25:08.382Z,43.93
2022-11-08T06:28:13.382Z,51.67
2022-11-08T06:31:18.552Z,60.87
2022-11-08T06:34:22.370Z,64.60
2022-11-08T06:37:26.054Z,72.57
2022-11-08T06:40:29.775Z,76.97
2022-11-08T06:43:33.482Z,71.67
2022-11-08T06:46:38.542Z,77.17
2022-11-08T06:49:42.302Z,83.13
2022-11-08T06:52:45.962Z,95.07
2022-11-08T06:55:49.623Z,85.60
2022-11-08T06:58:53.334Z,102.53
2022-11-08T07:01:58.745Z,75.73
2022-11-08T07:05:02.452Z,84.23
2022-11-08T07:08:06.764Z,65.03
2022-11-08T07:11:11.241Z,62.33
2022-11-08T07:14:14.889Z,54.47
2022-11-08T07:17:20.092Z,48.50
2022-11-08T07:20:23.792Z,50.33
2022-11-08T07:23:27.513Z,47.63
2022-11-08T07:26:31.338Z,57.03
2022-11-08T07:29:35.103Z,49.53
2022-11-08T07:32:40.264Z,49.03
2022-11-08T07:35:47.976Z,46.93
2022-11-08T07:38:53.243Z,48.00
2022-11-08T07:41:57.103Z,48.30
2022-11-08T07:45:03.492Z,52.37
2022-11-08T07:48:14.720Z,56.83
2022-11-08T07:51:18.482Z,47.40
2022-11-08T07:54:22.212Z,56.10
2022-11-08T07:57:25.972Z,45.13
2022-11-08T08:00:29.734Z,56.07
2022-11-08T08:03:35.207Z,56.67
2022-11-08T08:06:38.902Z,64.67
2022-11-08T08:09:42.623Z,47.33
2022-11-08T08:12:47.573Z,54.30
2022-11-08T08:15:51.382Z,59.57
2022-11-08T08:18:56.987Z,58.37
2022-11-08T08:22:04.092Z,57.37
2022-11-08T08:25:11.171Z,49.60
2022-11-08T08:28:15.182Z,43.33
2022-11-08T08:31:22.252Z,43.70
2022-11-08T08:34:27.315Z,50.60
2022-11-08T08:37:31.083Z,42.67
2022-11-08T08:40:35.162Z,56.27
2022-11-08T08:43:39.002Z,41.27
2022-11-08T08:46:42.672Z,48.30
2022-11-08T08:49:47.850Z,45.50
2022-11-08T08:52:51.611Z,40.20
2022-11-08T08:55:55.374Z,39.03
2022-11-08T09:02:22.783Z,38.10
2022-11-08T09:05:27.992Z,36.97
2022-11-08T09:08:32.093Z,39.73
2022-11-08T09:11:35.942Z,36.40
2022-11-08T09:14:39.694Z,28.88
2022-11-08T09:17:43.672Z,33.10
2022-11-08T09:20:48.982Z,30.65
2022-11-08T09:23:52.761Z,33.75
2022-11-08T09:26:56.462Z,25.50
2022-11-08T09:30:00.554Z,33.78
2022-11-08T09:33:04.399Z,25.30
2022-11-08T09:36:13.901Z,25.88
2022-11-08T09:39:17.802Z,27.63
2022-11-08T09:42:51.156Z,31.25
2022-11-08T09:45:57.589Z,33.72
2022-11-08T09:49:04.691Z,32.85
2022-11-08T09:52:15.499Z,34.80
2022-11-08T09:55:26.153Z,32.50
2022-11-08T09:58:36.092Z,34.63
2022-11-08T10:01:40.366Z,28.65
2022-11-08T10:04:44.352Z,35.50
2022-11-08T10:07:55.772Z,41.13
2022-11-08T10:11:27.941Z,33.33
2022-11-08T10:14:53.833Z,31.98
2022-11-08T10:18:17.101Z,33.28
2022-11-08T10:21:53.482Z,34.05
2022-11-08T10:25:02.684Z,31.02
2022-11-08T10:28:08.663Z,33.72
2022-11-08T10:31:14.752Z,33.55
2022-11-08T10:34:21.759Z,33.17
2022-11-08T10:37:28.452Z,32.55
2022-11-08T10:40:44.392Z,30.30
2022-11-08T10:43:53.670Z,30.17
2022-11-08T10:47:07.304Z,34.90
2022-11-08T10:50:17.358Z,33.75
2022-11-08T10:53:26.263Z,30.58
2022-11-08T10:56:34.205Z,30.25
2022-11-08T10:59:41.735Z,31.52
2022-11-08T11:02:46.732Z,31.45
2022-11-08T11:06:00.250Z,34.53
2022-11-08T11:09:06.610Z,33.28
2022-11-08T11:12:15.132Z,36.80
2022-11-08T11:15:19.512Z,36.72
2022-11-08T11:18:28.994Z,34.67
2022-11-08T11:21:37.922Z,33.83
2022-11-08T11:24:51.704Z,31.75
2022-11-08T11:28:00.094Z,34.78
2022-11-08T11:31:06.324Z,30.65
2022-11-08T11:34:37.553Z,31.08
2022-11-08T11:37:45.263Z,31.80
2022-11-08T11:40:50.099Z,33.45
2022-11-08T11:44:07.764Z,31.88
2022-11-08T11:47:18.953Z,34.17
2022-11-08T11:50:35.542Z,45.97
2022-11-08T11:53:44.616Z,35.75
2022-11-08T11:56:58.161Z,35.47
2022-11-08T12:00:07.246Z,32.60
2022-11-08T12:03:47.233Z,33.22
2022-11-08T12:07:04.904Z,30.98
2022-11-08T12:10:20.883Z,34.05
2022-11-08T12:13:31.204Z,37.97
2022-11-08T12:16:43.588Z,37.65
2022-11-08T12:20:07.478Z,34.17
2022-11-08T12:23:38.829Z,35.00
2022-11-08T12:26:52.558Z,32.72
2022-11-08T12:30:04.693Z,30.98
2022-11-08T12:33:33.778Z,32.85
2022-11-08T12:36:45.369Z,28.35
2022-11-08T12:39:56.310Z,29.05
2022-11-08T12:43:11.676Z,33.38
2022-11-08T12:46:18.688Z,32.15
2022-11-08T12:49:34.701Z,34.40
2022-11-08T12:52:53.069Z,32.92
2022-11-08T12:55:59.757Z,27.38
2022-11-08T12:59:06.059Z,34.55
2022-11-08T13:02:19.349Z,26.75
2022-11-08T13:05:28.607Z,30.13
2022-11-08T13:08:42.228Z,30.13
2022-11-08T13:11:53.948Z,34.92
2022-11-08T13:15:00.427Z,33.58
2022-11-08T13:18:34.508Z,33.28
2022-11-08T13:21:42.393Z,30.65
2022-11-08T13:24:46.216Z,29.50
2022-11-08T13:27:50.617Z,32.70
2022-11-08T13:31:02.728Z,32.38
2022-11-08T13:34:19.070Z,30.38
2022-11-08T13:37:38.685Z,36.25
2022-11-08T13:41:02.868Z,36.72
2022-11-08T13:44:45.128Z,31.58
2022-11-08T13:47:57.149Z,32.47
2022-11-08T13:51:30.739Z,31.92
2022-11-08T13:54:53.798Z,30.42
2022-11-08T13:58:00.397Z,30.67
2022-11-08T14:01:06.676Z,33.65
2022-11-08T14:04:26.288Z,33.90
2022-11-08T14:07:39.208Z,33.40
2022-11-08T14:11:05.267Z,36.35
2022-11-08T14:14:31.219Z,40.37
2022-11-08T14:17:47.070Z,35.70
2022-11-08T14:20:51.074Z,39.33
2022-11-08T14:23:55.178Z,39.30
2022-11-08T14:27:00.709Z,41.97
2022-11-08T14:30:06.209Z,39.77
2022-11-08T14:33:18.640Z,39.90
2022-11-08T14:36:24.230Z,41.97
2022-11-08T14:39:31.568Z,35.07
2022-11-08T14:42:36.847Z,39.42
2022-11-08T14:45:43.959Z,51.23
2022-11-08T14:48:51.697Z,36.57
2022-11-08T14:52:16.146Z,36.00
2022-11-08T14:55:25.355Z,34.87
2022-11-08T14:58:31.547Z,35.60
2022-11-08T15:01:36.805Z,34.13
2022-11-08T15:04:41.891Z,40.40
2022-11-08T15:07:48.123Z,46.33
2022-11-08T15:10:58.402Z,49.50
2022-11-08T15:14:06.727Z,37.80
2022-11-08T15:17:35.622Z,42.77
2022-11-08T15:20:39.582Z,34.77
2022-11-08T15:23:44.903Z,39.17
2022-11-08T15:27:16.022Z,46.03
2022-11-08T15:30:22.982Z,41.97
2022-11-08T15:33:28.928Z,41.57
2022-11-08T15:36:36.083Z,39.17
2022-11-08T15:39:41.934Z,36.20
2022-11-08T15:42:47.596Z,33.20
2022-11-08T15:45:55.832Z,34.40
2022-11-08T15:49:00.832Z,38.80
2022-11-08T15:52:05.724Z,39.67
2022-11-08T15:55:10.035Z,35.20
2022-11-08T15:58:17.628Z,28.57
2022-11-08T16:01:23.341Z,36.30
2022-11-08T16:04:28.638Z,35.00
2022-11-08T16:07:32.443Z,32.70
2022-11-08T16:10:40.283Z,35.77
2022-11-08T16:13:44.135Z,34.07
2022-11-08T16:16:49.293Z,36.10
2022-11-08T16:19:52.983Z,36.60
2022-11-08T16:22:57.353Z,37.37
2022-11-08T16:26:03.453Z,40.63
2022-11-08T16:29:07.183Z,48.40
2022-11-08T16:32:12.374Z,35.60
2022-11-08T16:35:16.553Z,36.00
2022-11-08T16:38:28.545Z,36.30
2022-11-08T16:41:32.536Z,38.87
2022-11-08T16:44:40.941Z,36.83
2022-11-08T16:47:48.962Z,32.60
2022-11-08T16:50:53.303Z,38.90
2022-11-08T16:53:57.243Z,42.00
2022-11-08T16:57:28.519Z,34.13
2022-11-08T17:00:26.522Z,36.50
2022-11-08T17:03:31.854Z,37.53
2022-11-08T17:06:35.732Z,38.23
2022-11-08T17:09:39.364Z,43.83
2022-11-08T17:12:43.833Z,42.83
2022-11-08T17:15:49.396Z,44.37
2022-11-08T17:18:54.855Z,39.43
2022-11-08T17:21:59.643Z,43.90
2022-11-08T17:25:03.853Z,43.17
2022-11-08T17:28:07.907Z,42.37
2022-11-08T17:31:13.493Z,40.37
2022-11-08T17:34:18.882Z,41.17
2022-11-08T17:37:22.602Z,43.20
2022-11-08T17:40:26.683Z,46.00
2022-11-08T17:43:33.536Z,38.13
2022-11-08T17:46:37.523Z,42.27
2022-11-08T17:49:44.037Z,46.13
2022-11-08T17:52:47.953Z,42.03
2022-11-08T17:55:55.749Z,46.87
2022-11-08T17:58:59.573Z,44.37
2022-11-08T18:02:03.579Z,41.60
2022-11-08T18:05:09.674Z,48.87
2022-11-08T18:08:13.523Z,45.07
2022-11-08T18:11:17.274Z,44.30
2022-11-08T18:14:28.016Z,52.57
2022-11-08T18:17:32.230Z,59.43
2022-11-08T18:20:40.004Z,54.50
2022-11-08T18:23:44.420Z,49.87
2022-11-08T18:26:48.244Z,47.60
2022-11-08T18:29:52.013Z,52.50
2022-11-08T18:32:55.924Z,51.13
2022-11-08T18:36:06.314Z,43.90
2022-11-08T18:39:11.321Z,46.23
2022-11-08T18:42:17.842Z,46.53
2022-11-08T18:45:21.516Z,43.23
2022-11-08T18:48:25.253Z,50.40
2022-11-08T18:51:30.588Z,50.17
2022-11-08T18:54:37.056Z,50.43
2022-11-08T18:57:40.985Z,51.87
2022-11-08T19:00:45.904Z,50.70
2022-11-08T19:03:49.514Z,60.30
2022-11-08T19:06:55.113Z,56.70
2022-11-08T19:09:58.864Z,61.33
2022-11-08T19:13:02.583Z,59.60
2022-11-08T19:16:09.453Z,56.80
2022-11-08T19:19:13.603Z,69.93
2022-11-08T19:22:18.864Z,62.10
2022-11-08T19:25:22.554Z,56.67
2022-11-08T19:28:30.356Z,71.17
2022-11-08T19:31:36.684Z,71.00
2022-11-08T19:34:41.457Z,74.03
2022-11-08T19:37:46.685Z,67.23
2022-11-08T19:40:50.484Z,71.50
2022-11-08T19:43:55.269Z,78.80
2022-11-08T19:46:59.063Z,85.47
2022-11-08T19:50:02.793Z,80.37
2022-11-08T19:53:07.852Z,72.33
2022-11-08T19:56:13.203Z,77.87
2022-11-08T19:59:17.423Z,72.47
2022-11-08T20:02:21.203Z,82.17
2022-11-08T20:05:24.764Z,88.23
2022-11-08T20:08:30.012Z,85.43
2022-11-08T20:11:36.499Z,82.93
2022-11-08T20:14:40.255Z,78.97
2022-11-08T20:17:44.009Z,86.43
2022-11-08T20:20:47.747Z,85.90
2022-11-08T20:23:52.899Z,81.33
2022-11-08T20:26:57.187Z,84.53
2022-11-08T20:30:01.257Z,76.10
2022-11-08T20:33:05.275Z,80.73
2022-11-08T20:36:11.286Z,71.80
2022-11-08T20:39:17.128Z,72.47
2022-11-08T20:42:21.038Z,85.77
2022-11-08T20:45:24.977Z,86.57
2022-11-08T20:48:29.472Z,87.17
2022-11-08T20:51:33.919Z,87.23
2022-11-08T20:54:43.749Z,89.50
2022-11-08T20:57:48.007Z,93.53
2022-11-08T21:00:58.123Z,89.80
2022-11-08T21:04:02.553Z,85.27
2022-11-08T21:10:47.923Z,80.07
2022-11-08T21:13:51.954Z,86.30
2022-11-08T21:20:19.607Z,84.40
2022-11-08T21:23:23.318Z,85.47
2022-11-08T21:26:28.810Z,87.67
2022-11-08T21:29:32.587Z,78.70
2022-11-08T21:32:36.299Z,71.23
2022-11-08T21:35:40.558Z,64.83
2022-11-08T21:38:44.217Z,67.83
2022-11-08T21:41:49.318Z,65.57
2022-11-08T21:44:53.011Z,66.97
2022-11-08T21:47:56.757Z,65.37
2022-11-08T21:51:04.917Z,63.57
2022-11-08T21:54:08.835Z,61.17
2022-11-08T21:57:13.985Z,61.43
2022-11-08T22:00:18.347Z,65.20
2022-11-08T22:03:22.077Z,61.33
2022-11-08T22:06:26.011Z,58.97
2022-11-08T22:09:29.826Z,55.13
2022-11-08T22:12:35.529Z,63.33
2022-11-08T22:15:39.248Z,70.70
2022-11-08T22:22:07.388Z,76.70
2022-11-08T22:25:11.095Z,72.20
2022-11-08T22:28:16.425Z,68.07
2022-11-08T22:31:20.296Z,63.07
2022-11-08T22:34:23.980Z,63.30
2022-11-08T22:37:27.718Z,64.30
2022-11-08T22:40:31.407Z,62.03
2022-11-08T22:43:36.567Z,68.27
2022-11-08T22:46:40.367Z,59.00
2022-11-08T22:49:45.256Z,58.60
2022-11-08T22:52:49.949Z,55.37
2022-11-08T22:55:53.577Z,58.53
2022-11-08T22:58:58.648Z,57.47
2022-11-08T23:02:02.418Z,61.97
2022-11-08T23:05:06.446Z,64.13
2022-11-08T23:08:10.298Z,61.03
2022-11-08T23:11:31.407Z,61.13
2022-11-08T23:14:53.570Z,59.00
2022-11-08T23:17:57.677Z,56.93
2022-11-08T23:21:18.648Z,54.45
2022-11-08T23:24:22.268Z,62.83
2022-11-08T23:27:43.868Z,67.47
2022-11-08T23:31:06.320Z,57.63
2022-11-08T23:34:09.968Z,59.10
2022-11-08T23:37:13.770Z,61.77
2022-11-08T23:40:36.816Z,59.10
2022-11-08T23:43:57.907Z,59.87
2022-11-08T23:47:03.199Z,56.40
2022-11-08T23:50:07.874Z,59.90
2022-11-08T23:53:11.557Z,68.90
2022-11-08T23:56:23.631Z,55.97
2022-11-08T23:59:27.288Z,62.87
